Aviation Digital Data Service (ADDS)

Output produced by METARs form (0707 UTC 23 October 2018)
found at http://aviationweather.gov/metar/data/
 
KBTR 230653Z AUTO 02003KT 10SM BKN120 17/14 A3012 RMK AO2 SLP199 T01720144
KBTR 230520Z 2306/2406 00000KT P6SM -RA BKN120 OVC200 
     FM231500 05004KT P6SM -RA BKN025 OVC090 
     FM231900 05004KT P6SM -RA OVC015 
     FM240500 05005KT P6SM BKN045